Time;durP1;ratioP1;P1;durP2;ratioP2;P2;SDS_P1;SDS_P2;PMS_P1;PMS_P2;Temp;Humidity;BMP_temperature;BMP_pressure;BME280_temperature;BME280_humidity;BME280_pressure;Samples;Min_cycle;Max_cycle;Signal;HPM_P1;HPM_P2
2022/06/20 00:01:06;;;;;;;12.07;3.78;;;;;;;;;;5004778;28;20600;-70
2022/06/20 00:03:38;;;;;;;8.88;3.17;;;;;;;;;;4988806;28;20037;-70
2022/06/20 00:06:04;;;;;;;7.43;3.20;;;;;;;;;;5008105;28;20045;-70
2022/06/20 00:08:30;;;;;;;8.25;2.72;;;;;;;;;;5006191;28;20057;-71
2022/06/20 00:10:55;;;;;;;13.02;3.00;;;;;;;;;;5005415;28;20120;-70
2022/06/20 00:13:31;;;;;;;9.30;2.60;;;;;;;;;;4992830;28;20037;-70
2022/06/20 00:15:57;;;;;;;12.55;3.17;;;;;;;;;;5008206;28;20413;-70
2022/06/20 00:18:23;;;;;;;7.85;2.80;;;;;;;;;;5008359;28;20478;-70
2022/06/20 00:20:49;;;;;;;9.50;3.30;;;;;;;;;;5005944;28;20107;-70
2022/06/20 00:23:15;;;;;;;10.48;2.97;;;;;;;;;;5005030;28;20053;-70
2022/06/20 00:25:41;;;;;;;6.68;2.50;;;;;;;;;;5005402;28;20112;-71
2022/06/20 00:28:08;;;;;;;10.60;2.65;;;;;;;;;;4991153;28;20053;-70
2022/06/20 00:30:35;;;;;;;12.25;3.40;;;;;;;;;;5008202;28;20558;-70
2022/06/20 00:33:00;;;;;;;7.28;2.38;;;;;;;;;;5007078;28;20040;-70
2022/06/20 00:35:25;;;;;;;12.27;3.15;;;;;;;;;;5009415;28;20042;-71
2022/06/20 00:37:55;;;;;;;10.15;2.80;;;;;;;;;;5006162;28;20027;-71
2022/06/20 00:40:32;;;;;;;8.30;2.42;;;;;;;;;;5005257;28;20609;-71
2022/06/20 00:42:58;;;;;;;5.97;2.45;;;;;;;;;;4992963;28;20562;-71
2022/06/20 00:45:27;;;;;;;11.23;3.17;;;;;;;;;;5007486;28;20038;-71
2022/06/20 00:47:59;;;;;;;8.25;2.80;;;;;;;;;;5009450;28;20037;-70
2022/06/20 00:50:29;;;;;;;10.68;3.30;;;;;;;;;;4995944;28;20033;-69
2022/06/20 00:53:02;;;;;;;9.85;2.88;;;;;;;;;;5005905;28;20021;-70
2022/06/20 00:55:41;;;;;;;6.38;2.50;;;;;;;;;;5008851;28;20062;-70
2022/06/20 00:58:15;;;;;;;8.63;2.60;;;;;;;;;;5008141;28;20042;-70
2022/06/20 01:00:41;;;;;;;11.65;2.88;;;;;;;;;;5003377;28;20520;-73
2022/06/20 01:03:13;;;;;;;7.68;2.58;;;;;;;;;;5004209;28;20033;-73
2022/06/20 01:05:43;;;;;;;9.57;2.42;;;;;;;;;;5003569;28;20120;-72
2022/06/20 01:08:24;;;;;;;8.95;2.45;;;;;;;;;;5005579;28;20485;-73
2022/06/20 01:11:01;;;;;;;9.40;2.47;;;;;;;;;;5005505;28;20030;-71
2022/06/20 01:13:27;;;;;;;9.20;2.83;;;;;;;;;;5006169;28;20033;-73
2022/06/20 01:15:58;;;;;;;10.57;2.53;;;;;;;;;;5007540;28;20030;-72
2022/06/20 01:18:28;;;;;;;9.80;2.60;;;;;;;;;;5007322;28;20127;-73
2022/06/20 01:20:55;;;;;;;5.90;2.42;;;;;;;;;;5009405;28;20045;-72
2022/06/20 01:23:58;;;;;;;8.30;2.35;;;;;;;;;;5008712;28;20048;-71
2022/06/20 01:26:37;;;;;;;9.93;2.40;;;;;;;;;;5007801;28;20083;-73
2022/06/20 01:29:06;;;;;;;7.00;2.30;;;;;;;;;;5009191;28;20026;-71
2022/06/20 01:31:37;;;;;;;6.68;1.90;;;;;;;;;;5011779;28;20459;-73
2022/06/20 01:34:03;;;;;;;6.40;1.80;;;;;;;;;;5005088;28;20370;-72
2022/06/20 01:39:18;;;;;;;9.25;2.42;;;;;;;;;;5000729;28;20263;-74
2022/06/20 01:44:36;;;;;;;7.95;2.25;;;;;;;;;;5008820;28;20069;-74
2022/06/20 01:47:02;;;;;;;7.45;2.10;;;;;;;;;;5009071;28;20030;-74
2022/06/20 01:49:31;;;;;;;7.78;1.80;;;;;;;;;;5004450;28;20069;-74
2022/06/20 01:52:12;;;;;;;11.15;2.10;;;;;;;;;;5003466;28;20050;-73
2022/06/20 01:54:42;;;;;;;11.15;2.20;;;;;;;;;;5004855;28;20046;-74
2022/06/20 01:57:10;;;;;;;11.32;1.92;;;;;;;;;;5000116;28;20037;-73
2022/06/20 01:59:51;;;;;;;8.43;2.40;;;;;;;;;;5003337;28;20490;-73
2022/06/20 02:02:17;;;;;;;5.35;1.70;;;;;;;;;;5004354;28;20418;-74
2022/06/20 02:04:44;;;;;;;8.05;1.80;;;;;;;;;;5005049;28;20025;-72
2022/06/20 02:07:11;;;;;;;8.20;2.00;;;;;;;;;;5001795;28;20038;-73
2022/06/20 02:09:39;;;;;;;8.88;2.08;;;;;;;;;;5004553;28;20056;-74
2022/06/20 02:12:05;;;;;;;6.93;2.17;;;;;;;;;;5003132;28;20068;-74
2022/06/20 02:14:35;;;;;;;7.70;1.98;;;;;;;;;;5002909;28;20541;-73
2022/06/20 02:17:05;;;;;;;9.50;2.10;;;;;;;;;;5003846;28;20390;-73
2022/06/20 02:19:37;;;;;;;8.40;1.80;;;;;;;;;;5002577;28;20046;-75
2022/06/20 02:22:06;;;;;;;6.43;2.20;;;;;;;;;;5000588;28;20046;-73
2022/06/20 02:24:36;;;;;;;10.38;2.05;;;;;;;;;;5004988;28;20030;-75
2022/06/20 02:27:04;;;;;;;8.52;2.22;;;;;;;;;;5002359;28;20457;-73
2022/06/20 02:29:31;;;;;;;5.53;1.95;;;;;;;;;;5002225;28;20033;-72
2022/06/20 02:32:34;;;;;;;11.32;2.20;;;;;;;;;;5002915;28;20057;-73
2022/06/20 02:35:01;;;;;;;8.38;1.95;;;;;;;;;;4927943;29;20043;-74
2022/06/20 02:37:27;;;;;;;6.47;1.73;;;;;;;;;;4993466;28;20069;-73
2022/06/20 02:40:03;;;;;;;6.75;2.22;;;;;;;;;;5006975;28;20442;-72
2022/06/20 02:42:29;;;;;;;6.40;1.90;;;;;;;;;;5008874;28;20033;-75
2022/06/20 02:44:55;;;;;;;9.10;2.72;;;;;;;;;;5007420;28;20095;-72
2022/06/20 02:47:23;;;;;;;6.72;2.00;;;;;;;;;;5005300;28;20030;-74
2022/06/20 02:49:51;;;;;;;6.28;1.92;;;;;;;;;;5011061;28;20047;-74
2022/06/20 02:52:21;;;;;;;4.95;1.88;;;;;;;;;;5009320;28;20432;-73
2022/06/20 02:54:49;;;;;;;7.22;1.98;;;;;;;;;;5009167;28;20444;-71
2022/06/20 02:57:21;;;;;;;8.32;2.00;;;;;;;;;;5009193;28;20027;-70
2022/06/20 02:59:52;;;;;;;11.20;2.28;;;;;;;;;;5008912;28;20050;-70
2022/06/20 03:02:23;;;;;;;6.45;2.03;;;;;;;;;;5008419;28;20048;-70
2022/06/20 03:04:49;;;;;;;6.20;2.22;;;;;;;;;;5008066;28;20510;-71
2022/06/20 03:07:32;;;;;;;6.07;2.20;;;;;;;;;;5002882;28;20379;-71
2022/06/20 03:10:17;;;;;;;;;;;;;;;;;;5005054;28;20030;-68
2022/06/20 03:12:44;;;;;;;5.72;1.90;;;;;;;;;;4990743;28;19921;-71
2022/06/20 03:15:10;;;;;;;6.35;1.65;;;;;;;;;;5002420;28;20124;-70
2022/06/20 03:17:36;;;;;;;7.13;1.63;;;;;;;;;;5006136;28;20056;-72
2022/06/20 03:20:06;;;;;;;6.05;2.05;;;;;;;;;;5003955;28;20030;-71
2022/06/20 03:22:36;;;;;;;6.50;2.13;;;;;;;;;;4982273;28;20120;-70
2022/06/20 03:25:03;;;;;;;4.88;1.70;;;;;;;;;;4984480;28;20035;-70
2022/06/20 03:27:33;;;;;;;8.30;2.35;;;;;;;;;;4985086;28;20031;-71
2022/06/20 03:30:20;;;;;;;8.88;2.42;;;;;;;;;;4992098;28;20140;-70
2022/06/20 03:32:46;;;;;;;8.65;2.05;;;;;;;;;;5002738;28;20051;-70
2022/06/20 03:35:12;;;;;;;6.53;2.00;;;;;;;;;;5001927;28;20034;-71
2022/06/20 03:37:37;;;;;;;4.10;1.73;;;;;;;;;;5001700;28;20038;-71
2022/06/20 03:40:04;;;;;;;4.75;1.70;;;;;;;;;;5003114;28;20549;-71
2022/06/20 03:42:30;;;;;;;10.23;2.08;;;;;;;;;;5004791;28;20042;-71
2022/06/20 03:44:57;;;;;;;7.50;1.83;;;;;;;;;;5000753;28;20046;-71
2022/06/20 03:47:33;;;;;;;4.85;2.10;;;;;;;;;;5000916;28;20053;-71
2022/06/20 03:50:10;;;;;;;8.30;2.42;;;;;;;;;;5005521;28;20534;-71
2022/06/20 03:52:42;;;;;;;8.43;1.92;;;;;;;;;;5002358;28;20520;-70
2022/06/20 03:55:17;;;;;;;7.35;1.77;;;;;;;;;;4999789;28;20069;-70
2022/06/20 03:57:52;;;;;;;4.82;1.90;;;;;;;;;;5001206;28;20042;-69
2022/06/20 04:00:27;;;;;;;6.53;2.10;;;;;;;;;;5003008;28;20111;-71
2022/06/20 04:02:58;;;;;;;10.88;2.22;;;;;;;;;;4983726;28;20088;-72
2022/06/20 04:05:30;;;;;;;5.03;2.10;;;;;;;;;;5002687;28;20045;-71
2022/06/20 04:08:07;;;;;;;7.13;2.22;;;;;;;;;;5000383;28;20045;-70
2022/06/20 04:13:39;;;;;;;11.95;2.65;;;;;;;;;;5005115;28;20072;-71
2022/06/20 04:16:29;;;;;;;11.57;2.53;;;;;;;;;;5002129;28;20056;-72
2022/06/20 04:19:07;;;;;;;9.60;2.47;;;;;;;;;;5006768;28;20037;-71
2022/06/20 04:21:52;;;;;;;8.73;2.92;;;;;;;;;;5005977;28;20073;-70
2022/06/20 04:24:31;;;;;;;7.15;2.78;;;;;;;;;;5004685;28;20036;-70
2022/06/20 04:27:03;;;;;;;11.13;2.72;;;;;;;;;;4988262;28;20379;-71
2022/06/20 04:29:38;;;;;;;14.07;2.80;;;;;;;;;;5009305;28;20049;-73
2022/06/20 04:32:16;;;;;;;7.55;2.80;;;;;;;;;;5006748;28;20492;-71
2022/06/20 04:34:44;;;;;;;6.47;2.60;;;;;;;;;;5011143;28;20045;-71
2022/06/20 04:37:18;;;;;;;7.55;2.85;;;;;;;;;;4974114;28;20522;-71
2022/06/20 04:39:53;;;;;;;8.10;2.50;;;;;;;;;;4991105;28;20137;-71
2022/06/20 04:42:47;;;;;;;8.88;2.58;;;;;;;;;;4989702;28;20502;-72
2022/06/20 04:46:03;;;;;;;6.13;2.42;;;;;;;;;;4987871;28;20042;-70
2022/06/20 04:48:28;;;;;;;6.63;2.10;;;;;;;;;;4936802;28;20047;-71
2022/06/20 04:50:59;;;;;;;6.75;1.90;;;;;;;;;;4990845;28;20106;-71
2022/06/20 04:53:30;;;;;;;8.15;2.03;;;;;;;;;;4971871;28;20510;-70
2022/06/20 04:55:59;;;;;;;6.32;2.00;;;;;;;;;;4972168;28;20034;-70
2022/06/20 04:58:34;;;;;;;9.93;2.10;;;;;;;;;;4987057;28;20391;-71
2022/06/20 05:01:01;;;;;;;6.22;1.83;;;;;;;;;;4968568;28;20105;-71
2022/06/20 05:03:35;;;;;;;5.75;2.17;;;;;;;;;;4987615;28;20039;-71
2022/06/20 05:06:04;;;;;;;7.05;2.03;;;;;;;;;;4986284;28;20434;-70
2022/06/20 05:08:43;;;;;;;7.78;1.85;;;;;;;;;;4982970;28;20513;-70
2022/06/20 05:11:17;;;;;;;4.82;1.98;;;;;;;;;;4983037;28;20378;-70
2022/06/20 05:13:51;;;;;;;5.10;1.90;;;;;;;;;;4984521;28;20034;-71
2022/06/20 05:16:19;;;;;;;7.28;2.10;;;;;;;;;;5000257;28;20040;-71
2022/06/20 05:18:59;;;;;;;7.40;2.22;;;;;;;;;;5005322;28;20033;-71
2022/06/20 05:21:28;;;;;;;6.47;1.90;;;;;;;;;;5004194;28;20035;-70
2022/06/20 05:24:07;;;;;;;7.43;2.15;;;;;;;;;;5004189;28;20030;-71
2022/06/20 05:26:35;;;;;;;8.73;2.30;;;;;;;;;;5004491;28;20049;-71
2022/06/20 05:29:06;;;;;;;4.55;1.83;;;;;;;;;;5005075;28;20049;-71
2022/06/20 05:31:37;;;;;;;7.38;1.80;;;;;;;;;;5004014;28;20045;-71
2022/06/20 05:34:09;;;;;;;7.18;1.90;;;;;;;;;;5006561;28;20173;-71
2022/06/20 05:36:59;;;;;;;6.75;1.65;;;;;;;;;;5003906;28;20118;-70
2022/06/20 05:39:37;;;;;;;8.98;1.80;;;;;;;;;;5002738;28;20057;-71
2022/06/20 05:42:03;;;;;;;5.38;1.70;;;;;;;;;;5003165;28;20136;-71
2022/06/20 05:44:29;;;;;;;5.22;1.80;;;;;;;;;;5005421;28;20030;-71
2022/06/20 05:47:04;;;;;;;5.15;1.70;;;;;;;;;;5005453;28;20029;-71
2022/06/20 05:49:39;;;;;;;8.77;1.80;;;;;;;;;;5007145;28;20049;-71
2022/06/20 05:52:08;;;;;;;5.07;1.98;;;;;;;;;;5003583;28;20438;-71
2022/06/20 05:54:40;;;;;;;11.80;1.75;;;;;;;;;;4990391;28;20030;-71
2022/06/20 05:57:12;;;;;;;;;;;;;;;;;;4995340;28;20038;-70
2022/06/20 05:59:48;;;;;;;6.07;1.48;;;;;;;;;;5004072;28;20389;-70
2022/06/20 06:02:26;;;;;;;5.82;1.52;;;;;;;;;;5006578;28;20072;-71
2022/06/20 06:05:13;;;;;;;7.00;1.85;;;;;;;;;;5001032;28;21554;-70
2022/06/20 06:08:01;;;;;;;3.75;1.35;;;;;;;;;;5012157;28;20409;-71
2022/06/20 06:10:47;;;;;;;3.53;1.60;;;;;;;;;;5008794;28;20041;-71
2022/06/20 06:13:24;;;;;;;6.43;1.45;;;;;;;;;;5007281;28;20057;-70
2022/06/20 06:19:02;;;;;;;4.80;1.90;;;;;;;;;;5004925;28;20167;-70
2022/06/20 06:21:28;;;;;;;6.97;1.48;;;;;;;;;;5002378;28;20257;-71
2022/06/20 06:23:55;;;;;;;13.10;2.08;;;;;;;;;;5003573;28;20129;-70
2022/06/20 06:26:20;;;;;;;22.30;3.20;;;;;;;;;;5000953;28;20025;-70
2022/06/20 06:28:48;;;;;;;26.90;3.00;;;;;;;;;;5006014;28;20026;-71
2022/06/20 06:31:29;;;;;;;10.02;2.53;;;;;;;;;;5004726;28;20058;-70
2022/06/20 06:34:11;;;;;;;12.65;2.10;;;;;;;;;;5006522;28;20052;-70
2022/06/20 06:36:44;;;;;;;130.77;12.15;;;;;;;;;;5003957;28;20387;-71
2022/06/20 06:39:14;;;;;;;13.32;3.17;;;;;;;;;;5004365;28;20034;-71
2022/06/20 06:41:46;;;;;;;13.07;2.28;;;;;;;;;;5004140;28;20046;-70
2022/06/20 06:44:37;;;;;;;7.88;2.22;;;;;;;;;;5002419;28;20061;-70
2022/06/20 06:47:03;;;;;;;15.68;2.67;;;;;;;;;;5000650;28;20048;-70
2022/06/20 06:49:38;;;;;;;14.32;2.10;;;;;;;;;;5002717;28;20022;-71
2022/06/20 06:52:23;;;;;;;30.35;2.97;;;;;;;;;;5004978;28;20041;-71
2022/06/20 06:54:57;;;;;;;17.60;4.15;;;;;;;;;;4999143;28;20041;-72
2022/06/20 06:57:36;;;;;;;29.98;4.57;;;;;;;;;;5002876;28;20594;-72
2022/06/20 07:00:05;;;;;;;20.83;3.45;;;;;;;;;;4999998;28;20034;-71
2022/06/20 07:02:45;;;;;;;15.70;2.45;;;;;;;;;;5003018;28;20045;-71
2022/06/20 07:05:34;;;;;;;8.45;1.75;;;;;;;;;;5002887;28;20030;-72
2022/06/20 07:08:15;;;;;;;5.25;1.83;;;;;;;;;;5005450;28;20453;-71
2022/06/20 07:10:59;;;;;;;5.60;1.77;;;;;;;;;;5006327;28;20069;-70
2022/06/20 07:13:49;;;;;;;9.18;2.45;;;;;;;;;;5001612;28;20061;-71
2022/06/20 07:16:27;;;;;;;4.45;1.77;;;;;;;;;;5001059;28;20037;-71
2022/06/20 07:18:58;;;;;;;6.75;1.73;;;;;;;;;;5006206;28;20109;-70
2022/06/20 07:21:25;;;;;;;11.45;2.22;;;;;;;;;;4999271;28;20058;-70
2022/06/20 07:24:00;;;;;;;8.13;1.65;;;;;;;;;;5004902;28;20053;-70
2022/06/20 07:26:30;;;;;;;3.92;1.40;;;;;;;;;;5004004;28;20046;-70
2022/06/20 07:29:04;;;;;;;2.85;1.70;;;;;;;;;;5003309;28;20393;-70
2022/06/20 07:31:41;;;;;;;4.32;1.70;;;;;;;;;;4999934;28;20121;-71
2022/06/20 07:34:22;;;;;;;7.93;1.80;;;;;;;;;;4989229;28;21071;-71
2022/06/20 07:36:53;;;;;;;8.50;1.90;;;;;;;;;;5003859;28;20069;-71
2022/06/20 07:39:28;;;;;;;5.37;1.90;;;;;;;;;;5002773;28;20064;-71
2022/06/20 07:41:58;;;;;;;5.60;2.00;;;;;;;;;;5003737;28;20061;-71
2022/06/20 07:44:42;;;;;;;4.15;1.90;;;;;;;;;;5004742;28;20439;-71
2022/06/20 07:47:18;;;;;;;5.78;1.60;;;;;;;;;;5001168;28;20034;-71
2022/06/20 07:49:54;;;;;;;4.05;1.27;;;;;;;;;;5006560;28;20401;-71
2022/06/20 07:52:23;;;;;;;3.08;1.25;;;;;;;;;;5008099;28;20126;-71
2022/06/20 07:54:59;;;;;;;3.28;1.38;;;;;;;;;;4988915;28;20556;-71
2022/06/20 07:57:35;;;;;;;1.70;1.00;;;;;;;;;;5007536;28;20053;-71
2022/06/20 08:00:06;;;;;;;3.03;1.27;;;;;;;;;;4987772;28;20034;-71
2022/06/20 08:02:38;;;;;;;3.92;1.48;;;;;;;;;;4987764;28;20038;-71
2022/06/20 08:05:06;;;;;;;3.97;1.85;;;;;;;;;;5004669;28;20121;-71
2022/06/20 08:07:42;;;;;;;4.70;1.23;;;;;;;;;;4990010;28;20511;-70
2022/06/20 08:10:15;;;;;;;5.45;1.25;;;;;;;;;;5007675;28;20509;-71
2022/06/20 08:12:47;;;;;;;2.33;0.98;;;;;;;;;;5006352;28;20133;-70
2022/06/20 08:15:45;;;;;;;3.08;1.10;;;;;;;;;;5004022;28;20041;-70
2022/06/20 08:18:12;;;;;;;1.50;1.23;;;;;;;;;;4954855;28;20060;-69
2022/06/20 08:20:42;;;;;;;1.77;0.90;;;;;;;;;;5007084;28;20729;-72
2022/06/20 08:23:14;;;;;;;2.08;0.88;;;;;;;;;;5004875;28;20478;-71
2022/06/20 08:25:46;;;;;;;0.80;0.80;;;;;;;;;;5007714;28;20092;-71
2022/06/20 08:28:18;;;;;;;0.70;0.70;;;;;;;;;;5008566;28;20079;-71
2022/06/20 08:30:53;;;;;;;0.98;0.63;;;;;;;;;;5005384;28;20034;-70
2022/06/20 08:33:36;;;;;;;0.88;0.57;;;;;;;;;;5006699;28;20038;-71
2022/06/20 08:36:24;;;;;;;2.20;0.60;;;;;;;;;;5010099;28;20038;-71
2022/06/20 08:38:56;;;;;;;0.50;0.50;;;;;;;;;;5010644;28;20058;-71
2022/06/20 08:41:57;;;;;;;1.13;0.60;;;;;;;;;;5007386;28;20481;-72
2022/06/20 08:44:34;;;;;;;0.70;0.50;;;;;;;;;;5005945;28;20069;-71
2022/06/20 08:47:24;;;;;;;2.22;0.50;;;;;;;;;;5010031;28;20026;-72
2022/06/20 08:50:25;;;;;;;0.60;0.60;;;;;;;;;;5009629;28;20042;-72
2022/06/20 08:52:50;;;;;;;0.50;0.50;;;;;;;;;;5008908;28;20494;-71
2022/06/20 08:55:18;;;;;;;5.25;0.70;;;;;;;;;;5006611;28;20041;-71
2022/06/20 08:57:53;;;;;;;0.88;0.60;;;;;;;;;;5009805;28;20076;-70
2022/06/20 09:00:26;;;;;;;3.53;0.55;;;;;;;;;;5007705;28;20042;-70
2022/06/20 09:03:02;;;;;;;1.30;0.60;;;;;;;;;;5002640;28;20037;-72
2022/06/20 09:05:27;;;;;;;1.42;0.70;;;;;;;;;;5005756;28;20525;-70
2022/06/20 09:08:37;;;;;;;1.23;0.80;;;;;;;;;;5004492;28;20064;-70
2022/06/20 09:11:27;;;;;;;3.38;1.15;;;;;;;;;;5003422;28;20049;-71
2022/06/20 09:14:18;;;;;;;1.15;0.70;;;;;;;;;;5003931;28;20402;-70
2022/06/20 09:17:07;;;;;;;2.28;0.90;;;;;;;;;;5001205;28;20805;-72
2022/06/20 09:20:26;;;;;;;0.98;0.70;;;;;;;;;;5005493;28;20707;-71
2022/06/20 09:23:14;;;;;;;1.00;0.80;;;;;;;;;;4963095;28;20094;-71
2022/06/20 09:25:54;;;;;;;0.93;0.63;;;;;;;;;;5000881;28;20390;-70
2022/06/20 09:28:25;;;;;;;0.50;0.50;;;;;;;;;;5006823;28;20522;-70
2022/06/20 09:31:29;;;;;;;0.60;0.60;;;;;;;;;;5006862;28;20490;-71
2022/06/20 09:34:23;;;;;;;0.63;0.63;;;;;;;;;;5003359;28;20042;-70
2022/06/20 09:37:12;;;;;;;2.17;0.63;;;;;;;;;;5002148;28;20046;-71
2022/06/20 09:39:55;;;;;;;4.22;0.90;;;;;;;;;;5000745;28;20054;-71
2022/06/20 09:42:21;;;;;;;;;;;;;;;;;;5004266;28;20552;-69
2022/06/20 09:45:06;;;;;;;1.33;0.93;;;;;;;;;;4986091;28;19924;-70
2022/06/20 09:47:58;;;;;;;3.80;1.17;;;;;;;;;;4985321;28;20421;-71
2022/06/20 09:51:02;;;;;;;9.15;1.70;;;;;;;;;;4982857;28;20038;-71
2022/06/20 09:53:38;;;;;;;1.70;1.60;;;;;;;;;;4905315;29;20070;-70
2022/06/20 09:56:22;;;;;;;2.08;1.70;;;;;;;;;;4990383;28;20153;-69
2022/06/20 09:59:01;;;;;;;6.72;1.60;;;;;;;;;;5004668;28;20032;-69
2022/06/20 10:01:48;;;;;;;3.17;1.30;;;;;;;;;;5001575;28;20033;-72
2022/06/20 10:04:36;;;;;;;2.72;1.40;;;;;;;;;;5002917;28;20515;-72
2022/06/20 10:07:12;;;;;;;2.95;1.52;;;;;;;;;;5005427;28;20061;-71
2022/06/20 10:10:08;;;;;;;3.35;1.48;;;;;;;;;;5004520;28;20132;-71
2022/06/20 10:12:33;;;;;;;1.98;1.20;;;;;;;;;;5006810;28;20321;-71
2022/06/20 10:15:11;;;;;;;1.55;1.23;;;;;;;;;;5004070;28;20038;-71
2022/06/20 10:18:15;;;;;;;2.33;1.20;;;;;;;;;;5002957;28;20038;-71
2022/06/20 10:21:07;;;;;;;1.42;1.20;;;;;;;;;;5000819;28;20042;-71
2022/06/20 10:24:24;;;;;;;1.75;1.35;;;;;;;;;;5004981;28;20045;-71
2022/06/20 10:26:52;;;;;;;2.13;1.55;;;;;;;;;;4961185;28;20117;-71
2022/06/20 10:29:42;;;;;;;3.40;1.48;;;;;;;;;;5004040;28;20385;-72
2022/06/20 10:32:19;;;;;;;3.53;1.98;;;;;;;;;;4986056;28;20052;-72
2022/06/20 10:35:04;;;;;;;3.15;1.90;;;;;;;;;;5006916;28;20351;-71
2022/06/20 10:38:00;;;;;;;1.92;1.20;;;;;;;;;;5004962;28;20046;-71
2022/06/20 10:41:01;;;;;;;1.40;1.30;;;;;;;;;;5006852;28;20042;-71
2022/06/20 10:43:48;;;;;;;1.60;1.35;;;;;;;;;;4969627;28;20062;-70
2022/06/20 10:46:32;;;;;;;1.77;1.40;;;;;;;;;;4985185;28;20026;-74
2022/06/20 10:49:26;;;;;;;1.70;1.23;;;;;;;;;;4988319;28;20486;-69
2022/06/20 10:52:07;;;;;;;1.20;1.10;;;;;;;;;;4976847;28;20105;-71
2022/06/20 10:54:57;;;;;;;2.35;1.50;;;;;;;;;;4985706;28;20039;-71
2022/06/20 10:57:28;;;;;;;1.65;0.90;;;;;;;;;;4985263;28;20042;-71
2022/06/20 11:00:09;;;;;;;0.98;0.85;;;;;;;;;;4988487;28;20462;-71
2022/06/20 11:03:03;;;;;;;1.35;0.90;;;;;;;;;;4981773;28;20398;-70
2022/06/20 11:05:46;;;;;;;1.33;1.00;;;;;;;;;;4983233;28;20057;-71
2022/06/20 11:08:39;;;;;;;1.17;0.75;;;;;;;;;;4980952;28;20034;-70
2022/06/20 11:11:23;;;;;;;1.35;0.60;;;;;;;;;;4983464;28;20129;-72
2022/06/20 11:14:09;;;;;;;1.20;0.80;;;;;;;;;;4981329;28;20092;-71
2022/06/20 11:16:59;;;;;;;1.30;0.73;;;;;;;;;;5004958;28;20137;-71
2022/06/20 11:19:43;;;;;;;1.25;0.60;;;;;;;;;;5002018;28;20702;-71
2022/06/20 11:22:35;;;;;;;1.83;0.70;;;;;;;;;;5002811;28;20056;-70
2022/06/20 11:25:10;;;;;;;2.45;0.70;;;;;;;;;;5007598;28;20037;-70
2022/06/20 11:27:41;;;;;;;0.60;0.60;;;;;;;;;;5003710;28;20038;-71
2022/06/20 11:30:41;;;;;;;0.63;0.63;;;;;;;;;;5004936;28;20442;-71
2022/06/20 11:33:21;;;;;;;1.08;0.70;;;;;;;;;;5007382;28;20038;-71
2022/06/20 11:36:05;;;;;;;1.65;0.85;;;;;;;;;;5009342;28;20038;-70
2022/06/20 11:38:43;;;;;;;0.95;0.40;;;;;;;;;;4987377;28;20046;-71
2022/06/20 11:41:22;;;;;;;1.27;1.17;;;;;;;;;;5004963;28;20199;-71
2022/06/20 11:44:10;;;;;;;1.95;0.80;;;;;;;;;;5006212;28;20041;-69
2022/06/20 11:46:38;;;;;;;4.65;1.83;;;;;;;;;;5005516;28;20401;-72
2022/06/20 11:49:41;;;;;;;8.00;1.67;;;;;;;;;;5004519;28;20030;-70
2022/06/20 11:52:19;;;;;;;1.25;0.70;;;;;;;;;;5007476;28;20065;-69
2022/06/20 11:55:08;;;;;;;0.93;0.50;;;;;;;;;;5006993;28;20045;-71
2022/06/20 11:57:57;;;;;;;0.60;0.47;;;;;;;;;;5007213;28;20528;-71
2022/06/20 12:00:31;;;;;;;3.72;0.50;;;;;;;;;;5006190;28;20073;-71
2022/06/20 12:03:44;;;;;;;2.95;0.52;;;;;;;;;;4991378;28;20385;-70
2022/06/20 12:06:20;;;;;;;1.20;0.43;;;;;;;;;;5003814;28;20038;-71
2022/06/20 12:08:54;;;;;;;1.95;0.50;;;;;;;;;;5011937;28;20038;-71
2022/06/20 12:11:49;;;;;;;1.80;0.65;;;;;;;;;;5004680;28;20037;-72
2022/06/20 12:14:30;;;;;;;2.17;0.40;;;;;;;;;;5005800;28;20382;-70
2022/06/20 12:17:31;;;;;;;0.57;0.40;;;;;;;;;;5005620;28;20049;-70
2022/06/20 12:23:33;;;;;;;1.92;1.00;;;;;;;;;;4986553;28;20464;-70
2022/06/20 12:26:10;;;;;;;2.08;0.50;;;;;;;;;;4991502;28;20363;-71
2022/06/20 12:28:45;;;;;;;2.95;0.50;;;;;;;;;;4988403;28;20050;-70
2022/06/20 12:31:17;;;;;;;1.20;0.40;;;;;;;;;;4989086;28;20034;-71
2022/06/20 12:34:24;;;;;;;0.40;0.30;;;;;;;;;;4987807;28;20035;-71
2022/06/20 12:37:03;;;;;;;0.85;0.40;;;;;;;;;;4968670;28;20038;-71
2022/06/20 12:39:36;;;;;;;0.20;0.20;;;;;;;;;;4989358;28;20580;-70
2022/06/20 12:42:20;;;;;;;0.22;0.22;;;;;;;;;;4973689;28;20039;-70
2022/06/20 12:45:13;;;;;;;0.30;0.20;;;;;;;;;;4989441;28;20061;-70
2022/06/20 12:48:07;;;;;;;0.20;0.20;;;;;;;;;;4984707;28;20049;-69
2022/06/20 12:50:56;;;;;;;1.08;0.40;;;;;;;;;;4990656;28;20042;-71
2022/06/20 12:53:39;;;;;;;1.48;0.32;;;;;;;;;;4994378;28;20479;-71
2022/06/20 12:56:14;;;;;;;0.75;0.40;;;;;;;;;;4990269;28;20030;-71
2022/06/20 12:59:02;;;;;;;0.55;0.40;;;;;;;;;;4987498;28;20099;-71
2022/06/20 13:01:55;;;;;;;3.03;0.45;;;;;;;;;;5005151;28;20502;-70
2022/06/20 13:04:55;;;;;;;0.52;0.32;;;;;;;;;;5002091;28;20038;-71
2022/06/20 13:08:00;;;;;;;1.15;0.50;;;;;;;;;;5003732;28;20173;-71
2022/06/20 13:10:51;;;;;;;0.60;0.30;;;;;;;;;;5005413;28;20069;-72
2022/06/20 13:13:47;;;;;;;1.00;0.80;;;;;;;;;;5006889;28;20029;-71
2022/06/20 13:16:44;;;;;;;0.73;0.35;;;;;;;;;;5004926;28;20045;-71
2022/06/20 13:19:25;;;;;;;0.30;0.30;;;;;;;;;;5005465;28;20045;-71
2022/06/20 13:21:58;;;;;;;0.55;0.30;;;;;;;;;;5006145;28;20048;-71
2022/06/20 13:24:54;;;;;;;1.00;0.47;;;;;;;;;;4986375;28;20542;-70
2022/06/20 13:27:24;;;;;;;0.50;0.25;;;;;;;;;;4986854;28;20477;-69
2022/06/20 13:29:57;;;;;;;3.92;0.40;;;;;;;;;;4989946;28;20042;-71
2022/06/20 13:32:25;;;;;;;0.95;0.32;;;;;;;;;;4987080;28;20046;-70
2022/06/20 13:34:54;;;;;;;0.63;0.40;;;;;;;;;;4990538;28;20104;-70
2022/06/20 13:37:20;;;;;;;1.35;0.85;;;;;;;;;;5004006;28;20037;-71
2022/06/20 13:39:50;;;;;;;1.13;0.30;;;;;;;;;;5007758;28;20453;-71
2022/06/20 13:42:24;;;;;;;1.77;0.50;;;;;;;;;;5005464;28;20033;-71
2022/06/20 13:44:56;;;;;;;1.40;0.40;;;;;;;;;;5007143;28;20062;-70
2022/06/20 13:47:27;;;;;;;1.02;0.30;;;;;;;;;;5006472;28;20034;-71
2022/06/20 13:50:11;;;;;;;1.85;0.68;;;;;;;;;;5006377;28;20084;-71
2022/06/20 13:53:07;;;;;;;2.10;0.50;;;;;;;;;;5004356;28;20045;-70
2022/06/20 13:55:45;;;;;;;4.97;0.60;;;;;;;;;;4984600;28;20088;-69
2022/06/20 13:58:18;;;;;;;1.25;0.60;;;;;;;;;;4985152;28;20494;-74
2022/06/20 14:00:53;;;;;;;1.00;0.50;;;;;;;;;;4984993;28;20039;-72
2022/06/20 14:03:23;;;;;;;2.45;0.52;;;;;;;;;;4988979;28;20196;-71
2022/06/20 14:05:49;;;;;;;2.00;0.70;;;;;;;;;;4985825;28;20104;-71
2022/06/20 14:08:26;;;;;;;1.15;0.52;;;;;;;;;;4986330;28;20030;-71
2022/06/20 14:11:01;;;;;;;2.08;1.10;;;;;;;;;;4984422;28;20042;-71
2022/06/20 14:13:44;;;;;;;5.00;0.90;;;;;;;;;;4967370;28;20502;-72
2022/06/20 14:16:19;;;;;;;;;;;;;;;;;;4985612;28;20117;-70
2022/06/20 14:18:58;;;;;;;10.68;1.10;;;;;;;;;;4966066;28;19922;-71
2022/06/20 14:21:32;;;;;;;3.78;0.90;;;;;;;;;;4985855;28;20042;-70
2022/06/20 14:23:58;;;;;;;1.20;0.80;;;;;;;;;;4985107;28;20581;-71
2022/06/20 14:26:28;;;;;;;2.85;0.88;;;;;;;;;;4986919;28;20042;-70
2022/06/20 14:28:54;;;;;;;3.65;0.70;;;;;;;;;;4985203;28;20026;-72
2022/06/20 14:31:22;;;;;;;3.80;0.80;;;;;;;;;;4984981;28;20049;-71
2022/06/20 14:34:01;;;;;;;2.33;0.77;;;;;;;;;;4984357;28;20034;-71
2022/06/20 14:36:33;;;;;;;1.70;0.75;;;;;;;;;;4987003;28;20443;-71
2022/06/20 14:39:18;;;;;;;4.03;0.77;;;;;;;;;;4986794;28;20600;-71
2022/06/20 14:42:00;;;;;;;2.00;0.82;;;;;;;;;;4987596;28;20045;-71
2022/06/20 14:44:34;;;;;;;2.58;0.85;;;;;;;;;;4988612;28;20054;-72
2022/06/20 14:47:26;;;;;;;2.20;0.95;;;;;;;;;;4986681;28;20486;-70
2022/06/20 14:50:13;;;;;;;1.33;0.80;;;;;;;;;;4951238;28;20518;-71
2022/06/20 14:53:08;;;;;;;0.85;0.70;;;;;;;;;;4994306;28;20046;-71
2022/06/20 14:55:59;;;;;;;1.55;0.70;;;;;;;;;;4966285;28;20046;-71
2022/06/20 14:58:40;;;;;;;3.53;0.65;;;;;;;;;;5007472;28;20132;-71
2022/06/20 15:01:16;;;;;;;3.42;0.77;;;;;;;;;;5005984;28;20048;-72
2022/06/20 15:03:58;;;;;;;2.08;0.88;;;;;;;;;;5003422;28;20530;-72
2022/06/20 15:06:34;;;;;;;2.83;0.70;;;;;;;;;;5006014;28;20512;-72
2022/06/20 15:09:02;;;;;;;2.10;0.63;;;;;;;;;;5004362;28;20450;-72
2022/06/20 15:11:34;;;;;;;4.22;0.90;;;;;;;;;;4986299;28;20042;-72
2022/06/20 15:14:42;;;;;;;2.88;1.00;;;;;;;;;;5006467;28;20121;-70
2022/06/20 15:17:17;;;;;;;1.73;0.98;;;;;;;;;;4942709;28;20494;-70
2022/06/20 15:19:50;;;;;;;5.90;0.95;;;;;;;;;;4985643;28;20360;-71
2022/06/20 15:22:22;;;;;;;1.65;0.73;;;;;;;;;;4983279;28;20410;-71
2022/06/20 15:24:50;;;;;;;4.70;1.00;;;;;;;;;;4981186;28;20122;-72
2022/06/20 15:27:19;;;;;;;6.22;1.63;;;;;;;;;;4982384;28;20491;-71
2022/06/20 15:30:03;;;;;;;3.65;1.45;;;;;;;;;;4983002;28;20440;-71
2022/06/20 15:32:34;;;;;;;3.50;1.30;;;;;;;;;;4983669;28;20535;-71
2022/06/20 15:36:07;;;;;;;2.95;1.30;;;;;;;;;;4985823;28;20109;-71
2022/06/20 15:38:38;;;;;;;4.85;1.90;;;;;;;;;;4977579;28;20323;-70
2022/06/20 15:41:15;;;;;;;2.63;1.83;;;;;;;;;;4978052;28;20042;-71
2022/06/20 15:43:53;;;;;;;3.78;1.58;;;;;;;;;;4981626;28;20061;-71
2022/06/20 15:46:53;;;;;;;4.20;2.35;;;;;;;;;;4980937;28;20038;-71
2022/06/20 15:49:43;;;;;;;3.15;1.58;;;;;;;;;;4980764;28;20065;-71
2022/06/20 15:52:11;;;;;;;2.92;1.63;;;;;;;;;;4986190;28;20406;-70
2022/06/20 15:54:45;;;;;;;4.38;1.60;;;;;;;;;;4984918;28;20125;-71
2022/06/20 15:57:17;;;;;;;5.25;2.28;;;;;;;;;;4985134;28;20039;-71
2022/06/20 15:59:54;;;;;;;4.60;1.70;;;;;;;;;;4984240;28;20054;-72